sensor_id;sensor_type;location;lat;lon;timestamp;pressure;altitude;pressure_sealevel;temperature;humidity
21357;BME280;10836;53.068;18.234;2023-07-30T00:02:05;100189.50;;;16.26;100.00
21357;BME280;10836;53.068;18.234;2023-07-30T00:04:32;100196.16;;;16.25;100.00
21357;BME280;10836;53.068;18.234;2023-07-30T00:06:59;100193.53;;;16.12;100.00
21357;BME280;10836;53.068;18.234;2023-07-30T00:09:26;100193.56;;;16.29;100.00
21357;BME280;10836;53.068;18.234;2023-07-30T00:11:52;100197.31;;;16.33;100.00
21357;BME280;10836;53.068;18.234;2023-07-30T00:14:19;100198.75;;;16.30;100.00
21357;BME280;10836;53.068;18.234;2023-07-30T00:16:46;100198.75;;;16.22;100.00
21357;BME280;10836;53.068;18.234;2023-07-30T00:19:13;100197.94;;;16.13;100.00
21357;BME280;10836;53.068;18.234;2023-07-30T00:21:40;100204.25;;;16.13;100.00
21357;BME280;10836;53.068;18.234;2023-07-30T00:24:07;100194.19;;;16.09;100.00
21357;BME280;10836;53.068;18.234;2023-07-30T00:26:34;100209.59;;;16.10;100.00
21357;BME280;10836;53.068;18.234;2023-07-30T00:29:02;100211.19;;;16.11;100.00
21357;BME280;10836;53.068;18.234;2023-07-30T00:31:28;100216.25;;;16.17;100.00
21357;BME280;10836;53.068;18.234;2023-07-30T00:33:55;100214.78;;;16.03;100.00
21357;BME280;10836;53.068;18.234;2023-07-30T00:36:22;100214.09;;;16.06;100.00
21357;BME280;10836;53.068;18.234;2023-07-30T00:38:49;100220.28;;;16.03;100.00
21357;BME280;10836;53.068;18.234;2023-07-30T00:41:16;100217.84;;;16.01;100.00
21357;BME280;10836;53.068;18.234;2023-07-30T00:43:44;100225.28;;;16.09;100.00
21357;BME280;10836;53.068;18.234;2023-07-30T00:46:12;100222.22;;;16.11;100.00
21357;BME280;10836;53.068;18.234;2023-07-30T00:48:39;100221.25;;;16.07;100.00
21357;BME280;10836;53.068;18.234;2023-07-30T00:51:07;100215.09;;;16.10;100.00
21357;BME280;10836;53.068;18.234;2023-07-30T00:53:36;100219.78;;;16.09;100.00
21357;BME280;10836;53.068;18.234;2023-07-30T00:56:04;100233.88;;;16.08;100.00
21357;BME280;10836;53.068;18.234;2023-07-30T00:58:32;100233.88;;;16.08;100.00
21357;BME280;10836;53.068;18.234;2023-07-30T01:00:59;100234.88;;;16.12;100.00
21357;BME280;10836;53.068;18.234;2023-07-30T01:03:27;100232.91;;;16.04;100.00
21357;BME280;10836;53.068;18.234;2023-07-30T01:05:54;100227.56;;;16.07;100.00
21357;BME280;10836;53.068;18.234;2023-07-30T01:08:21;100227.09;;;15.96;100.00
21357;BME280;10836;53.068;18.234;2023-07-30T01:10:48;100230.97;;;15.95;100.00
21357;BME280;10836;53.068;18.234;2023-07-30T01:13:16;100234.53;;;16.05;100.00
21357;BME280;10836;53.068;18.234;2023-07-30T01:15:43;100236.47;;;15.95;100.00
21357;BME280;10836;53.068;18.234;2023-07-30T01:18:11;100231.94;;;16.00;100.00
21357;BME280;10836;53.068;18.234;2023-07-30T01:20:38;100236.31;;;15.92;100.00
21357;BME280;10836;53.068;18.234;2023-07-30T01:23:05;100231.13;;;15.90;100.00
21357;BME280;10836;53.068;18.234;2023-07-30T01:25:36;100238.09;;;15.96;100.00
21357;BME280;10836;53.068;18.234;2023-07-30T01:28:05;100235.00;;;15.89;100.00
21357;BME280;10836;53.068;18.234;2023-07-30T01:30:38;100225.94;;;15.98;100.00
21357;BME280;10836;53.068;18.234;2023-07-30T01:33:09;100228.88;;;16.01;100.00
21357;BME280;10836;53.068;18.234;2023-07-30T01:35:37;100236.00;;;16.02;100.00
21357;BME280;10836;53.068;18.234;2023-07-30T01:38:06;100234.38;;;16.01;100.00
21357;BME280;10836;53.068;18.234;2023-07-30T01:40:33;100238.09;;;16.05;100.00
21357;BME280;10836;53.068;18.234;2023-07-30T01:43:00;100248.16;;;16.10;100.00
21357;BME280;10836;53.068;18.234;2023-07-30T01:45:27;100243.13;;;16.12;100.00
21357;BME280;10836;53.068;18.234;2023-07-30T01:47:54;100231.13;;;16.08;100.00
21357;BME280;10836;53.068;18.234;2023-07-30T01:50:21;100245.72;;;16.08;100.00
21357;BME280;10836;53.068;18.234;2023-07-30T01:52:48;100240.38;;;16.12;100.00
21357;BME280;10836;53.068;18.234;2023-07-30T01:55:15;100232.59;;;16.14;100.00
21357;BME280;10836;53.068;18.234;2023-07-30T01:57:42;100234.53;;;16.05;100.00
21357;BME280;10836;53.068;18.234;2023-07-30T02:00:09;100237.78;;;16.07;100.00
21357;BME280;10836;53.068;18.234;2023-07-30T02:02:36;100231.31;;;16.20;100.00
21357;BME280;10836;53.068;18.234;2023-07-30T02:05:04;100235.34;;;16.14;100.00
21357;BME280;10836;53.068;18.234;2023-07-30T02:07:31;100227.91;;;16.14;100.00
21357;BME280;10836;53.068;18.234;2023-07-30T02:09:58;100231.63;;;16.10;100.00
21357;BME280;10836;53.068;18.234;2023-07-30T02:12:25;100241.34;;;15.99;100.00
21357;BME280;10836;53.068;18.234;2023-07-30T02:14:52;100247.50;;;15.95;100.00
21357;BME280;10836;53.068;18.234;2023-07-30T02:17:19;100239.06;;;16.01;100.00
21357;BME280;10836;53.068;18.234;2023-07-30T02:19:46;100243.59;;;15.96;100.00
21357;BME280;10836;53.068;18.234;2023-07-30T02:22:13;100247.00;;;15.93;100.00
21357;BME280;10836;53.068;18.234;2023-07-30T02:24:40;100257.88;;;15.99;100.00
21357;BME280;10836;53.068;18.234;2023-07-30T02:27:08;100254.63;;;15.96;100.00
21357;BME280;10836;53.068;18.234;2023-07-30T02:29:34;100256.56;;;16.05;100.00
21357;BME280;10836;53.068;18.234;2023-07-30T02:32:01;100257.88;;;16.16;100.00
21357;BME280;10836;53.068;18.234;2023-07-30T02:34:28;100261.75;;;16.15;100.00
21357;BME280;10836;53.068;18.234;2023-07-30T02:36:55;100252.53;;;16.11;100.00
21357;BME280;10836;53.068;18.234;2023-07-30T02:39:22;100250.91;;;16.10;100.00
21357;BME280;10836;53.068;18.234;2023-07-30T02:41:49;100254.47;;;16.02;100.00
21357;BME280;10836;53.068;18.234;2023-07-30T02:44:16;100257.53;;;16.09;100.00
21357;BME280;10836;53.068;18.234;2023-07-30T02:46:43;100254.13;;;16.03;100.00
21357;BME280;10836;53.068;18.234;2023-07-30T02:49:10;100250.91;;;16.10;100.00
21357;BME280;10836;53.068;18.234;2023-07-30T02:51:37;100254.16;;;16.12;100.00
21357;BME280;10836;53.068;18.234;2023-07-30T02:54:05;100261.13;;;16.18;100.00
21357;BME280;10836;53.068;18.234;2023-07-30T02:56:32;100266.28;;;16.11;100.00
21357;BME280;10836;53.068;18.234;2023-07-30T02:58:59;100264.66;;;16.10;100.00
21357;BME280;10836;53.068;18.234;2023-07-30T03:01:26;100259.34;;;16.13;100.00
21357;BME280;10836;53.068;18.234;2023-07-30T03:03:53;100261.59;;;16.11;100.00
21357;BME280;10836;53.068;18.234;2023-07-30T03:06:20;100253.50;;;16.15;100.00
21357;BME280;10836;53.068;18.234;2023-07-30T03:08:47;100252.88;;;16.18;100.00
21357;BME280;10836;53.068;18.234;2023-07-30T03:11:14;100248.19;;;16.27;100.00
21357;BME280;10836;53.068;18.234;2023-07-30T03:13:41;100255.31;;;16.28;100.00
21357;BME280;10836;53.068;18.234;2023-07-30T03:16:08;100255.94;;;16.25;100.00
21357;BME280;10836;53.068;18.234;2023-07-30T03:18:36;100252.72;;;16.23;100.00
21357;BME280;10836;53.068;18.234;2023-07-30T03:21:03;100259.03;;;16.32;100.00
21357;BME280;10836;53.068;18.234;2023-07-30T03:23:30;100257.25;;;16.19;100.00
21357;BME280;10836;53.068;18.234;2023-07-30T03:25:59;100252.38;;;16.24;100.00
21357;BME280;10836;53.068;18.234;2023-07-30T03:28:28;100263.91;;;16.35;100.00
21357;BME280;10836;53.068;18.234;2023-07-30T03:30:55;100270.56;;;16.34;100.00
21357;BME280;10836;53.068;18.234;2023-07-30T03:33:22;100257.28;;;16.36;100.00
21357;BME280;10836;53.068;18.234;2023-07-30T03:35:50;100268.75;;;16.29;100.00
21357;BME280;10836;53.068;18.234;2023-07-30T03:38:17;100264.06;;;16.47;100.00
21357;BME280;10836;53.068;18.234;2023-07-30T03:40:44;100258.72;;;16.51;100.00
21357;BME280;10836;53.068;18.234;2023-07-30T03:43:11;100256.28;;;16.49;100.00
21357;BME280;10836;53.068;18.234;2023-07-30T03:45:38;100275.44;;;16.37;100.00
21357;BME280;10836;53.068;18.234;2023-07-30T03:48:06;100268.63;;;16.43;100.00
21357;BME280;10836;53.068;18.234;2023-07-30T03:53:26;100257.91;;;16.50;100.00
21357;BME280;10836;53.068;18.234;2023-07-30T03:55:53;100262.94;;;16.48;100.00
21357;BME280;10836;53.068;18.234;2023-07-30T03:58:40;100266.19;;;16.59;100.00
21357;BME280;10836;53.068;18.234;2023-07-30T04:01:07;100271.72;;;16.42;100.00
21357;BME280;10836;53.068;18.234;2023-07-30T04:03:36;100274.13;;;16.43;100.00
21357;BME280;10836;53.068;18.234;2023-07-30T04:06:03;100274.78;;;16.40;100.00
21357;BME280;10836;53.068;18.234;2023-07-30T04:08:53;100279.16;;;16.41;100.00
21357;BME280;10836;53.068;18.234;2023-07-30T04:11:20;100283.19;;;16.52;100.00
21357;BME280;10836;53.068;18.234;2023-07-30T04:13:47;100281.41;;;16.56;100.00
21357;BME280;10836;53.068;18.234;2023-07-30T04:19:20;100274.50;;;16.68;100.00
21357;BME280;10836;53.068;18.234;2023-07-30T04:21:48;100276.94;;;16.78;100.00
21357;BME280;10836;53.068;18.234;2023-07-30T04:27:14;100287.75;;;16.91;100.00
21357;BME280;10836;53.068;18.234;2023-07-30T04:29:40;100285.69;;;16.80;100.00
21357;BME280;10836;53.068;18.234;2023-07-30T04:35:07;100298.47;;;16.93;100.00
21357;BME280;10836;53.068;18.234;2023-07-30T04:37:35;100300.56;;;17.05;100.00
21357;BME280;10836;53.068;18.234;2023-07-30T04:40:23;100303.97;;;17.10;100.00
21357;BME280;10836;53.068;18.234;2023-07-30T04:46:18;100314.03;;;17.06;100.00
21357;BME280;10836;53.068;18.234;2023-07-30T04:48:45;100308.19;;;16.99;100.00
21357;BME280;10836;53.068;18.234;2023-07-30T04:54:15;100314.03;;;17.23;100.00
21357;BME280;10836;53.068;18.234;2023-07-30T04:56:42;100303.66;;;17.20;100.00
21357;BME280;10836;53.068;18.234;2023-07-30T05:02:01;100315.97;;;17.14;100.00
21357;BME280;10836;53.068;18.234;2023-07-30T05:04:28;100315.97;;;17.14;100.00
21357;BME280;10836;53.068;18.234;2023-07-30T05:06:55;100317.75;;;17.19;100.00
21357;BME280;10836;53.068;18.234;2023-07-30T05:09:22;100312.88;;;17.24;100.00
21357;BME280;10836;53.068;18.234;2023-07-30T05:11:49;100320.34;;;17.33;100.00
21357;BME280;10836;53.068;18.234;2023-07-30T05:14:32;100318.38;;;17.33;100.00
21357;BME280;10836;53.068;18.234;2023-07-30T05:16:59;100322.56;;;17.39;100.00
21357;BME280;10836;53.068;18.234;2023-07-30T05:19:26;100321.50;;;17.32;100.00
21357;BME280;10836;53.068;18.234;2023-07-30T05:21:53;100320.19;;;17.20;100.00
21357;BME280;10836;53.068;18.234;2023-07-30T05:24:45;100330.91;;;17.31;100.00
21357;BME280;10836;53.068;18.234;2023-07-30T05:27:13;100321.97;;;17.25;100.00
21357;BME280;10836;53.068;18.234;2023-07-30T05:29:40;100315.97;;;17.14;100.00
21357;BME280;10836;53.068;18.234;2023-07-30T05:32:07;100323.94;;;17.24;100.00
21357;BME280;10836;53.068;18.234;2023-07-30T05:34:48;100329.13;;;17.26;100.00
21357;BME280;10836;53.068;18.234;2023-07-30T05:37:15;100325.56;;;17.25;100.00
21357;BME280;10836;53.068;18.234;2023-07-30T05:39:42;100329.78;;;17.23;100.00
21357;BME280;10836;53.068;18.234;2023-07-30T05:42:09;100341.72;;;17.44;100.00
21357;BME280;10836;53.068;18.234;2023-07-30T05:45:02;100339.59;;;17.67;100.00
21357;BME280;10836;53.068;18.234;2023-07-30T05:47:29;100336.81;;;17.76;100.00
21357;BME280;10836;53.068;18.234;2023-07-30T05:49:56;100335.84;;;17.72;100.00
21357;BME280;10836;53.068;18.234;2023-07-30T05:52:23;100336.94;;;17.79;100.00
21357;BME280;10836;53.068;18.234;2023-07-30T05:55:23;100334.00;;;17.84;100.00
21357;BME280;10836;53.068;18.234;2023-07-30T05:57:50;100344.66;;;17.65;100.00
21357;BME280;10836;53.068;18.234;2023-07-30T06:03:18;100340.00;;;17.86;100.00
21357;BME280;10836;53.068;18.234;2023-07-30T06:05:45;100337.25;;;17.86;100.00
21357;BME280;10836;53.068;18.234;2023-07-30T06:08:12;100346.66;;;17.85;100.00
21357;BME280;10836;53.068;18.234;2023-07-30T06:10:39;100338.06;;;17.87;100.00
21357;BME280;10836;53.068;18.234;2023-07-30T06:13:07;100341.44;;;17.92;100.00
21357;BME280;10836;53.068;18.234;2023-07-30T06:15:34;100335.84;;;18.10;100.00
21357;BME280;10836;53.068;18.234;2023-07-30T06:18:20;100334.69;;;18.40;100.00
21357;BME280;10836;53.068;18.234;2023-07-30T06:20:47;100340.03;;;18.45;100.00
21357;BME280;10836;53.068;18.234;2023-07-30T06:23:14;100343.88;;;18.53;100.00
21357;BME280;10836;53.068;18.234;2023-07-30T06:25:41;100356.56;;;18.63;100.00
21357;BME280;10836;53.068;18.234;2023-07-30T06:31:08;100350.28;;;18.95;100.00
21357;BME280;10836;53.068;18.234;2023-07-30T06:33:35;100348.81;;;19.31;100.00
21357;BME280;10836;53.068;18.234;2023-07-30T06:36:14;100340.56;;;19.43;100.00
21357;BME280;10836;53.068;18.234;2023-07-30T06:38:40;100341.53;;;19.59;100.00
21357;BME280;10836;53.068;18.234;2023-07-30T06:41:08;100337.72;;;19.64;100.00
21357;BME280;10836;53.068;18.234;2023-07-30T06:43:34;100337.19;;;19.70;100.00
21357;BME280;10836;53.068;18.234;2023-07-30T06:49:08;100356.94;;;19.48;100.00
21357;BME280;10836;53.068;18.234;2023-07-30T06:51:36;100351.84;;;19.38;100.00
21357;BME280;10836;53.068;18.234;2023-07-30T06:57:06;100345.69;;;19.65;100.00
21357;BME280;10836;53.068;18.234;2023-07-30T07:02:48;100348.06;;;20.12;100.00
21357;BME280;10836;53.068;18.234;2023-07-30T07:07:57;100345.63;;;20.10;100.00
21357;BME280;10836;53.068;18.234;2023-07-30T07:10:23;100353.34;;;19.80;100.00
21357;BME280;10836;53.068;18.234;2023-07-30T07:12:51;100351.31;;;19.89;100.00
21357;BME280;10836;53.068;18.234;2023-07-30T07:17:54;100345.41;;;19.91;100.00
21357;BME280;10836;53.068;18.234;2023-07-30T07:20:21;100348.28;;;19.94;100.00
21357;BME280;10836;53.068;18.234;2023-07-30T07:22:48;100342.06;;;20.10;100.00
21357;BME280;10836;53.068;18.234;2023-07-30T07:25:46;100343.22;;;20.33;100.00
21357;BME280;10836;53.068;18.234;2023-07-30T07:28:13;100348.78;;;20.21;100.00
21357;BME280;10836;53.068;18.234;2023-07-30T07:30:40;100350.97;;;20.52;100.00
21357;BME280;10836;53.068;18.234;2023-07-30T07:33:25;100352.81;;;20.60;100.00
21357;BME280;10836;53.068;18.234;2023-07-30T07:36:05;100359.78;;;20.94;100.00
21357;BME280;10836;53.068;18.234;2023-07-30T07:38:33;100357.22;;;20.89;100.00
21357;BME280;10836;53.068;18.234;2023-07-30T07:41:37;100359.34;;;21.20;100.00
21357;BME280;10836;53.068;18.234;2023-07-30T07:44:05;100355.94;;;20.99;100.00
21357;BME280;10836;53.068;18.234;2023-07-30T07:49:37;100358.69;;;21.11;100.00
21357;BME280;10836;53.068;18.234;2023-07-30T07:52:04;100363.38;;;20.82;100.00
21357;BME280;10836;53.068;18.234;2023-07-30T07:54:55;100360.78;;;20.13;100.00
21357;BME280;10836;53.068;18.234;2023-07-30T07:57:27;100367.72;;;20.31;100.00
21357;BME280;10836;53.068;18.234;2023-07-30T07:59:56;100367.59;;;20.52;100.00
21357;BME280;10836;53.068;18.234;2023-07-30T08:05:08;100369.91;;;20.38;100.00
21357;BME280;10836;53.068;18.234;2023-07-30T08:07:35;100364.94;;;20.55;100.00
21357;BME280;10836;53.068;18.234;2023-07-30T08:10:02;100371.03;;;20.37;100.00
21357;BME280;10836;53.068;18.234;2023-07-30T08:15:28;100379.84;;;21.15;100.00
21357;BME280;10836;53.068;18.234;2023-07-30T08:18:21;100380.88;;;20.71;100.00
21357;BME280;10836;53.068;18.234;2023-07-30T08:20:49;100380.31;;;20.77;100.00
21357;BME280;10836;53.068;18.234;2023-07-30T08:23:16;100388.56;;;20.89;100.00
21357;BME280;10836;53.068;18.234;2023-07-30T08:28:42;100382.06;;;20.57;100.00
21357;BME280;10836;53.068;18.234;2023-07-30T08:31:09;100385.88;;;20.53;100.00
21357;BME280;10836;53.068;18.234;2023-07-30T08:36:35;100385.66;;;21.38;100.00
21357;BME280;10836;53.068;18.234;2023-07-30T08:39:04;100390.88;;;21.83;100.00
21357;BME280;10836;53.068;18.234;2023-07-30T08:41:57;100391.53;;;22.24;100.00
21357;BME280;10836;53.068;18.234;2023-07-30T08:44:24;100399.78;;;22.52;98.30
21357;BME280;10836;53.068;18.234;2023-07-30T08:46:52;100404.38;;;22.95;96.53
21357;BME280;10836;53.068;18.234;2023-07-30T08:49:47;100395.63;;;22.62;96.88
21357;BME280;10836;53.068;18.234;2023-07-30T08:52:16;100401.59;;;22.95;94.78
21357;BME280;10836;53.068;18.234;2023-07-30T08:54:47;100396.59;;;23.04;96.61
21357;BME280;10836;53.068;18.234;2023-07-30T08:57:46;100399.81;;;23.83;94.60
21357;BME280;10836;53.068;18.234;2023-07-30T09:00:17;100406.13;;;23.42;91.50
21357;BME280;10836;53.068;18.234;2023-07-30T09:05:59;100404.56;;;23.60;89.91
21357;BME280;10836;53.068;18.234;2023-07-30T09:11:26;100394.00;;;23.69;84.32
21357;BME280;10836;53.068;18.234;2023-07-30T09:13:54;100395.97;;;23.92;81.13
21357;BME280;10836;53.068;18.234;2023-07-30T09:16:35;100400.06;;;23.98;80.22
21357;BME280;10836;53.068;18.234;2023-07-30T09:19:01;100392.13;;;24.45;80.79
21357;BME280;10836;53.068;18.234;2023-07-30T09:21:33;100396.13;;;24.97;76.69
21357;BME280;10836;53.068;18.234;2023-07-30T09:24:11;100408.50;;;24.24;80.47
21357;BME280;10836;53.068;18.234;2023-07-30T09:26:45;100400.28;;;23.47;83.81
21357;BME280;10836;53.068;18.234;2023-07-30T09:29:13;100413.16;;;22.97;86.79
21357;BME280;10836;53.068;18.234;2023-07-30T09:34:31;100420.50;;;23.05;86.85
21357;BME280;10836;53.068;18.234;2023-07-30T09:36:58;100415.31;;;24.04;85.56
21357;BME280;10836;53.068;18.234;2023-07-30T09:39:26;100413.34;;;23.81;83.13
21357;BME280;10836;53.068;18.234;2023-07-30T09:44:59;100409.94;;;24.90;80.37
21357;BME280;10836;53.068;18.234;2023-07-30T09:50:28;100411.91;;;24.60;80.51
21357;BME280;10836;53.068;18.234;2023-07-30T09:52:56;100416.66;;;23.91;84.82
21357;BME280;10836;53.068;18.234;2023-07-30T09:56:06;100417.38;;;23.65;83.50
21357;BME280;10836;53.068;18.234;2023-07-30T09:58:34;100417.75;;;23.82;85.09
21357;BME280;10836;53.068;18.234;2023-07-30T10:01:25;100425.69;;;23.61;83.39
21357;BME280;10836;53.068;18.234;2023-07-30T10:03:58;100430.72;;;23.75;85.75
21357;BME280;10836;53.068;18.234;2023-07-30T10:06:27;100429.09;;;24.16;86.70
21357;BME280;10836;53.068;18.234;2023-07-30T10:09:19;100413.19;;;24.66;80.57
21357;BME280;10836;53.068;18.234;2023-07-30T10:11:47;100414.16;;;24.50;79.02
21357;BME280;10836;53.068;18.234;2023-07-30T10:20:36;100400.06;;;24.70;77.72
21357;BME280;10836;53.068;18.234;2023-07-30T10:23:04;100407.50;;;24.59;74.74
21357;BME280;10836;53.068;18.234;2023-07-30T10:28:45;100414.66;;;25.09;75.38
21357;BME280;10836;53.068;18.234;2023-07-30T10:31:12;100416.66;;;24.85;73.78
21357;BME280;10836;53.068;18.234;2023-07-30T10:36:33;100410.41;;;25.22;73.61
21357;BME280;10836;53.068;18.234;2023-07-30T10:42:20;100411.22;;;24.66;74.56
21357;BME280;10836;53.068;18.234;2023-07-30T10:44:49;100418.75;;;24.39;77.11
21357;BME280;10836;53.068;18.234;2023-07-30T10:48:04;100406.88;;;24.69;74.28
21357;BME280;10836;53.068;18.234;2023-07-30T10:50:57;100410.16;;;25.34;68.17
21357;BME280;10836;53.068;18.234;2023-07-30T10:53:24;100412.66;;;25.09;69.95
21357;BME280;10836;53.068;18.234;2023-07-30T10:55:53;100413.94;;;24.63;71.66
21357;BME280;10836;53.068;18.234;2023-07-30T11:01:28;100408.84;;;25.58;70.99
21357;BME280;10836;53.068;18.234;2023-07-30T11:03:54;100404.50;;;24.97;68.48
21357;BME280;10836;53.068;18.234;2023-07-30T11:09:26;100395.00;;;25.35;70.53
21357;BME280;10836;53.068;18.234;2023-07-30T11:14:51;100395.19;;;25.19;67.15
21357;BME280;10836;53.068;18.234;2023-07-30T11:17:18;100400.72;;;25.46;66.72
21357;BME280;10836;53.068;18.234;2023-07-30T11:22:35;100399.91;;;26.19;61.80
21357;BME280;10836;53.068;18.234;2023-07-30T11:28:05;100405.25;;;25.91;60.94
21357;BME280;10836;53.068;18.234;2023-07-30T11:30:32;100399.06;;;26.15;56.31
21357;BME280;10836;53.068;18.234;2023-07-30T11:35:39;100385.00;;;26.52;55.92
21357;BME280;10836;53.068;18.234;2023-07-30T11:38:07;100391.19;;;26.87;52.12
21357;BME280;10836;53.068;18.234;2023-07-30T11:40:34;100374.59;;;26.53;55.26
21357;BME280;10836;53.068;18.234;2023-07-30T11:43:04;100388.41;;;26.83;56.68
21357;BME280;10836;53.068;18.234;2023-07-30T11:48:23;100385.78;;;25.65;55.89
21357;BME280;10836;53.068;18.234;2023-07-30T11:50:51;100386.88;;;26.96;54.53
21357;BME280;10836;53.068;18.234;2023-07-30T11:53:48;100375.94;;;26.22;53.05
21357;BME280;10836;53.068;18.234;2023-07-30T11:58:47;100382.84;;;25.88;52.24
